createdAt,value
2019-05-10T00:00:45.195Z,22.27
2019-05-10T00:06:05.320Z,27.10
2019-05-10T00:11:26.854Z,28.60
2019-05-10T00:16:29.035Z,27.13
2019-05-10T00:21:32.325Z,12.10
2019-05-10T00:26:34.390Z,8.23
2019-05-10T00:31:36.309Z,8.17
2019-05-10T00:36:38.383Z,9.83
2019-05-10T00:41:40.190Z,10.40
2019-05-10T00:46:42.129Z,10.07
2019-05-10T00:51:44.064Z,11.60
2019-05-10T00:56:46.307Z,11.50
2019-05-10T01:01:49.420Z,11.97
2019-05-10T01:06:51.497Z,11.90
2019-05-10T01:11:53.398Z,10.90
2019-05-10T01:16:55.411Z,13.17
2019-05-10T01:21:57.223Z,12.87
2019-05-10T01:26:59.377Z,11.90
2019-05-10T01:32:01.369Z,10.17
2019-05-10T01:37:03.388Z,9.57
2019-05-10T01:42:05.293Z,10.20
2019-05-10T01:47:07.110Z,11.77
2019-05-10T01:52:09.014Z,14.60
2019-05-10T01:57:10.948Z,12.50
2019-05-10T02:02:12.866Z,12.10
2019-05-10T02:07:15.292Z,12.40
2019-05-10T02:12:17.202Z,12.47
2019-05-10T02:17:21.219Z,10.40
2019-05-10T02:22:23.150Z,10.87
2019-05-10T02:27:26.158Z,9.83
2019-05-10T02:32:27.982Z,9.80
2019-05-10T02:37:30.198Z,10.67
2019-05-10T02:42:32.016Z,9.37
2019-05-10T02:47:35.119Z,9.77
2019-05-10T02:52:39.113Z,7.40
2019-05-10T02:57:42.407Z,7.60
2019-05-10T03:02:44.903Z,8.47
2019-05-10T03:07:47.597Z,8.33
2019-05-10T03:12:52.229Z,9.13
2019-05-10T03:17:56.190Z,10.40
2019-05-10T03:22:59.253Z,13.30
2019-05-10T03:28:01.175Z,13.20
2019-05-10T03:33:03.232Z,9.83
2019-05-10T03:38:11.118Z,6.67
2019-05-10T03:43:13.193Z,6.73
2019-05-10T03:48:15.019Z,7.40
2019-05-10T03:53:19.447Z,6.63
2019-05-10T03:58:21.332Z,6.43
2019-05-10T04:03:25.338Z,7.13
2019-05-10T04:08:29.157Z,7.00
2019-05-10T04:13:31.078Z,6.20
2019-05-10T04:18:35.819Z,5.10
2019-05-10T04:23:39.392Z,4.63
2019-05-10T04:28:42.957Z,6.20
2019-05-10T04:33:46.499Z,5.37
2019-05-10T04:38:48.608Z,4.60
2019-05-10T04:43:50.833Z,4.63
2019-05-10T04:48:54.887Z,5.23
2019-05-10T04:54:00.450Z,5.27
2019-05-10T04:59:03.586Z,5.30
2019-05-10T05:04:07.257Z,4.70
2019-05-10T05:09:09.194Z,5.20
2019-05-10T05:14:11.136Z,4.90
2019-05-10T05:19:14.202Z,4.93
2019-05-10T05:24:22.324Z,4.33
2019-05-10T05:29:20.360Z,4.93
2019-05-10T05:34:22.308Z,5.20
2019-05-10T05:39:24.165Z,4.67
2019-05-10T05:44:28.900Z,4.70
2019-05-10T05:49:30.710Z,4.70
2019-05-10T05:54:34.063Z,4.93
2019-05-10T05:59:37.193Z,4.13
2019-05-10T06:04:40.732Z,4.70
2019-05-10T06:09:44.246Z,4.00
2019-05-10T06:14:49.991Z,4.10
2019-05-10T06:19:51.767Z,4.27
2019-05-10T06:24:54.027Z,5.37
2019-05-10T06:29:56.034Z,5.20
2019-05-10T06:34:57.972Z,4.30
2019-05-10T06:40:02.892Z,3.77
2019-05-10T06:45:14.285Z,3.70
2019-05-10T06:50:12.323Z,4.20
2019-05-10T06:55:14.296Z,3.23
2019-05-10T07:00:17.677Z,3.70
2019-05-10T07:05:19.690Z,3.50
2019-05-10T07:10:25.167Z,3.67
2019-05-10T07:15:25.479Z,3.60
2019-05-10T07:20:29.621Z,3.60
2019-05-10T07:25:37.699Z,3.90
2019-05-10T07:30:41.612Z,2.80
2019-05-10T07:35:45.123Z,2.97
2019-05-10T07:40:48.810Z,3.47
2019-05-10T07:45:50.765Z,2.40
2019-05-10T07:50:52.761Z,2.60
2019-05-10T07:55:59.935Z,2.50
2019-05-10T08:00:58.670Z,3.10
2019-05-10T08:06:02.292Z,2.93
2019-05-10T08:11:04.209Z,2.20
2019-05-10T08:16:11.803Z,2.10
2019-05-10T08:21:21.820Z,2.60
2019-05-10T08:26:24.127Z,2.50
2019-05-10T08:31:25.915Z,2.37
2019-05-10T08:36:28.815Z,2.43
2019-05-10T08:41:32.682Z,2.20
2019-05-10T08:46:41.282Z,2.67
2019-05-10T08:51:43.788Z,2.60
2019-05-10T08:56:46.686Z,2.40
2019-05-10T09:01:50.896Z,2.77
2019-05-10T09:06:55.555Z,3.33
2019-05-10T09:11:57.733Z,2.87
2019-05-10T09:17:05.074Z,2.70
2019-05-10T09:22:06.898Z,2.60
2019-05-10T09:27:08.918Z,2.77
2019-05-10T09:32:12.588Z,2.50
2019-05-10T09:37:17.697Z,3.27
2019-05-10T09:42:26.424Z,2.47
2019-05-10T09:47:23.101Z,2.90
2019-05-10T09:52:26.397Z,3.03
2019-05-10T09:57:32.284Z,3.10
2019-05-10T10:02:34.435Z,2.90
2019-05-10T10:07:37.367Z,2.93
2019-05-10T10:12:39.464Z,3.10
2019-05-10T10:17:42.491Z,2.60
2019-05-10T10:22:52.616Z,2.37
2019-05-10T10:27:53.141Z,2.07
2019-05-10T10:32:55.292Z,2.50
2019-05-10T10:38:02.226Z,2.60
2019-05-10T10:43:00.923Z,2.07
2019-05-10T10:48:10.643Z,2.27
2019-05-10T10:53:08.010Z,2.30
2019-05-10T10:58:10.140Z,2.40
2019-05-10T11:03:12.061Z,2.70
2019-05-10T11:08:17.763Z,2.33
2019-05-10T11:13:39.862Z,2.80
2019-05-10T11:18:23.447Z,2.90
2019-05-10T11:23:34.008Z,2.70
2019-05-10T11:28:30.131Z,2.50
2019-05-10T11:33:33.978Z,2.97
2019-05-10T11:38:36.151Z,2.50
2019-05-10T11:43:38.612Z,2.70
2019-05-10T11:48:42.667Z,3.43
2019-05-10T11:53:49.082Z,2.70
2019-05-10T11:58:55.554Z,2.90
2019-05-10T12:03:56.571Z,2.73
2019-05-10T12:09:02.149Z,2.83
2019-05-10T12:14:02.698Z,2.77
2019-05-10T12:19:17.065Z,2.43
2019-05-10T12:24:31.181Z,2.60
2019-05-10T12:29:18.155Z,2.87
2019-05-10T12:34:20.703Z,2.63
2019-05-10T12:39:24.581Z,3.07
2019-05-10T12:44:28.556Z,2.80
2019-05-10T12:49:31.510Z,2.60
2019-05-10T12:54:35.768Z,3.03
2019-05-10T12:59:37.628Z,2.70
2019-05-10T13:04:52.466Z,2.90
2019-05-10T13:09:56.086Z,2.87
2019-05-10T13:14:57.004Z,3.20
2019-05-10T13:20:00.599Z,3.00
2019-05-10T13:25:03.941Z,3.50
2019-05-10T13:30:06.962Z,3.13
2019-05-10T13:35:09.006Z,3.23
2019-05-10T13:40:13.667Z,3.30
2019-05-10T13:45:15.661Z,2.80
2019-05-10T13:50:19.113Z,3.13
2019-05-10T13:55:24.793Z,3.43
2019-05-10T14:00:34.231Z,2.87
2019-05-10T14:05:33.093Z,3.10
2019-05-10T14:10:36.727Z,3.30
2019-05-10T14:15:38.748Z,3.50
2019-05-10T14:20:40.651Z,3.20
2019-05-10T14:25:42.549Z,3.37
2019-05-10T14:30:46.961Z,3.00
2019-05-10T14:35:48.414Z,3.17
2019-05-10T14:40:50.284Z,3.00
2019-05-10T14:45:56.637Z,3.40
2019-05-10T14:51:03.044Z,3.10
2019-05-10T14:56:07.893Z,3.47
2019-05-10T15:01:06.639Z,3.43
2019-05-10T15:06:08.882Z,3.17
2019-05-10T15:11:11.976Z,3.50
2019-05-10T15:16:26.083Z,4.57
2019-05-10T15:21:18.517Z,3.97
2019-05-10T15:26:20.511Z,3.20
2019-05-10T15:31:23.671Z,3.50
2019-05-10T15:36:29.836Z,3.30
2019-05-10T15:41:30.611Z,2.83
2019-05-10T15:46:38.690Z,2.80
2019-05-10T15:51:36.894Z,2.97
2019-05-10T15:56:41.475Z,3.40
2019-05-10T16:01:46.025Z,3.00
2019-05-10T16:06:50.983Z,2.90
2019-05-10T16:11:56.186Z,3.00
2019-05-10T16:17:00.678Z,3.57
2019-05-10T16:22:02.585Z,3.10
2019-05-10T16:27:04.840Z,3.03
2019-05-10T16:32:06.833Z,2.63
2019-05-10T16:37:10.661Z,3.10
2019-05-10T16:42:12.573Z,2.40
2019-05-10T16:47:14.493Z,2.87
2019-05-10T16:52:19.515Z,2.70
2019-05-10T16:57:20.525Z,2.87
2019-05-10T17:02:25.465Z,3.13
2019-05-10T17:07:27.532Z,2.77
2019-05-10T17:12:29.462Z,2.83
2019-05-10T17:17:37.077Z,2.63
2019-05-10T17:22:35.550Z,2.70
2019-05-10T17:27:37.491Z,2.83
2019-05-10T17:32:39.610Z,3.17
2019-05-10T17:37:41.750Z,3.10
2019-05-10T17:42:51.506Z,3.10
2019-05-10T17:47:53.107Z,3.50
2019-05-10T17:52:56.428Z,2.87
2019-05-10T17:57:58.854Z,3.30
2019-05-10T18:03:00.752Z,2.80
2019-05-10T18:08:02.702Z,3.17
2019-05-10T18:13:05.260Z,3.13
2019-05-10T18:18:07.473Z,2.70
2019-05-10T18:23:09.508Z,3.10
2019-05-10T18:28:11.558Z,3.10
2019-05-10T18:33:19.142Z,3.53
2019-05-10T18:38:24.045Z,4.07
2019-05-10T18:43:26.136Z,3.43
2019-05-10T18:48:30.632Z,4.07
2019-05-10T18:53:32.684Z,4.37
2019-05-10T18:58:34.599Z,3.90
2019-05-10T19:03:36.598Z,4.27
2019-05-10T19:08:38.498Z,4.00
2019-05-10T19:13:47.331Z,3.93
2019-05-10T19:18:44.250Z,4.10
2019-05-10T19:23:46.100Z,4.40
2019-05-10T19:28:47.976Z,4.40
2019-05-10T19:33:49.920Z,4.10
2019-05-10T19:38:51.954Z,4.00
2019-05-10T19:44:02.675Z,4.10
2019-05-10T19:49:00.347Z,4.20
2019-05-10T19:54:02.966Z,3.37
2019-05-10T19:59:10.913Z,3.60
2019-05-10T20:04:09.559Z,3.40
2019-05-10T20:09:11.582Z,3.27
2019-05-10T20:14:15.337Z,3.60
2019-05-10T20:19:17.219Z,3.80
2019-05-10T20:24:23.196Z,3.50
2019-05-10T20:29:26.423Z,3.40
2019-05-10T20:34:31.190Z,3.40
2019-05-10T20:39:35.041Z,4.00
2019-05-10T20:44:37.054Z,4.07
2019-05-10T20:49:41.314Z,3.70
2019-05-10T20:54:44.787Z,4.60
2019-05-10T20:59:47.602Z,3.77
2019-05-10T21:04:49.590Z,3.97
2019-05-10T21:09:56.170Z,4.10
2019-05-10T21:14:58.303Z,4.37
2019-05-10T21:20:04.593Z,4.70
2019-05-10T21:25:07.741Z,5.23
2019-05-10T21:30:15.221Z,4.73
2019-05-10T21:35:18.979Z,4.20
2019-05-10T21:40:20.952Z,4.57
2019-05-10T21:45:23.035Z,4.40
2019-05-10T21:50:25.021Z,4.53
2019-05-10T21:55:27.889Z,4.70
2019-05-10T22:00:34.102Z,4.80
2019-05-10T22:05:36.278Z,5.23
2019-05-10T22:10:38.218Z,5.90
2019-05-10T22:15:40.738Z,5.57
2019-05-10T22:20:42.696Z,5.63
2019-05-10T22:25:44.730Z,4.90
2019-05-10T22:30:46.697Z,5.23
2019-05-10T22:35:48.810Z,5.53
2019-05-10T22:40:50.745Z,6.50
2019-05-10T22:45:54.222Z,5.43
2019-05-10T22:50:58.523Z,5.47
2019-05-10T22:56:00.879Z,5.50
2019-05-10T23:01:02.802Z,5.73
2019-05-10T23:06:04.903Z,5.00
2019-05-10T23:11:08.337Z,5.43
2019-05-10T23:16:10.352Z,5.47
2019-05-10T23:21:14.939Z,5.50
2019-05-10T23:26:17.142Z,5.17
2019-05-10T23:31:18.984Z,5.97
2019-05-10T23:36:21.044Z,5.37
2019-05-10T23:41:25.264Z,5.60
2019-05-10T23:46:27.461Z,6.87
2019-05-10T23:51:29.400Z,6.27
2019-05-10T23:56:32.444Z,6.07
